sensor_id;sensor_type;location;lat;lon;timestamp;P1;durP1;ratioP1;P2;durP2;ratioP2
19521;SDS011;9905;52.126;5.596;2022-12-05T00:01:15;37.75;;;21.33;;
19521;SDS011;9905;52.126;5.596;2022-12-05T00:03:44;30.88;;;19.38;;
19521;SDS011;9905;52.126;5.596;2022-12-05T00:06:11;37.53;;;21.20;;
19521;SDS011;9905;52.126;5.596;2022-12-05T00:08:38;32.03;;;21.27;;
19521;SDS011;9905;52.126;5.596;2022-12-05T00:11:09;34.15;;;19.25;;
19521;SDS011;9905;52.126;5.596;2022-12-05T00:13:38;31.13;;;20.20;;
19521;SDS011;9905;52.126;5.596;2022-12-05T00:16:06;34.22;;;19.98;;
19521;SDS011;9905;52.126;5.596;2022-12-05T00:18:34;29.95;;;18.58;;
19521;SDS011;9905;52.126;5.596;2022-12-05T00:21:00;38.17;;;21.50;;
19521;SDS011;9905;52.126;5.596;2022-12-05T00:23:27;34.75;;;20.10;;
19521;SDS011;9905;52.126;5.596;2022-12-05T00:25:54;31.10;;;20.75;;
19521;SDS011;9905;52.126;5.596;2022-12-05T00:28:20;33.20;;;19.75;;
19521;SDS011;9905;52.126;5.596;2022-12-05T00:30:49;36.58;;;20.15;;
19521;SDS011;9905;52.126;5.596;2022-12-05T00:33:16;35.47;;;20.27;;
19521;SDS011;9905;52.126;5.596;2022-12-05T00:35:42;37.13;;;18.88;;
19521;SDS011;9905;52.126;5.596;2022-12-05T00:38:09;36.88;;;19.98;;
19521;SDS011;9905;52.126;5.596;2022-12-05T00:40:36;41.58;;;19.27;;
19521;SDS011;9905;52.126;5.596;2022-12-05T00:43:02;32.65;;;20.63;;
19521;SDS011;9905;52.126;5.596;2022-12-05T00:45:29;35.97;;;21.00;;
19521;SDS011;9905;52.126;5.596;2022-12-05T00:47:57;37.20;;;20.65;;
19521;SDS011;9905;52.126;5.596;2022-12-05T00:50:24;31.13;;;19.77;;
19521;SDS011;9905;52.126;5.596;2022-12-05T00:52:50;31.75;;;19.50;;
19521;SDS011;9905;52.126;5.596;2022-12-05T00:55:17;35.30;;;20.30;;
19521;SDS011;9905;52.126;5.596;2022-12-05T00:57:44;34.50;;;20.05;;
19521;SDS011;9905;52.126;5.596;2022-12-05T01:00:11;37.78;;;20.77;;
19521;SDS011;9905;52.126;5.596;2022-12-05T01:02:38;32.88;;;20.08;;
19521;SDS011;9905;52.126;5.596;2022-12-05T01:05:06;33.80;;;19.83;;
19521;SDS011;9905;52.126;5.596;2022-12-05T01:07:33;37.97;;;21.70;;
19521;SDS011;9905;52.126;5.596;2022-12-05T01:10:00;34.07;;;21.90;;
19521;SDS011;9905;52.126;5.596;2022-12-05T01:12:27;36.42;;;21.20;;
19521;SDS011;9905;52.126;5.596;2022-12-05T01:14:53;31.98;;;21.50;;
19521;SDS011;9905;52.126;5.596;2022-12-05T01:17:20;31.77;;;20.25;;
19521;SDS011;9905;52.126;5.596;2022-12-05T01:19:47;35.60;;;20.83;;
19521;SDS011;9905;52.126;5.596;2022-12-05T01:22:15;31.80;;;20.13;;
19521;SDS011;9905;52.126;5.596;2022-12-05T01:24:42;34.03;;;20.23;;
19521;SDS011;9905;52.126;5.596;2022-12-05T01:27:09;35.60;;;19.92;;
19521;SDS011;9905;52.126;5.596;2022-12-05T01:29:36;31.65;;;21.48;;
19521;SDS011;9905;52.126;5.596;2022-12-05T01:32:02;31.67;;;20.00;;
19521;SDS011;9905;52.126;5.596;2022-12-05T01:34:29;36.53;;;21.15;;
19521;SDS011;9905;52.126;5.596;2022-12-05T01:36:56;32.78;;;20.20;;
19521;SDS011;9905;52.126;5.596;2022-12-05T01:39:24;35.15;;;20.60;;
19521;SDS011;9905;52.126;5.596;2022-12-05T01:41:51;35.40;;;20.38;;
19521;SDS011;9905;52.126;5.596;2022-12-05T01:47:22;34.50;;;20.25;;
19521;SDS011;9905;52.126;5.596;2022-12-05T01:49:52;35.85;;;21.48;;
19521;SDS011;9905;52.126;5.596;2022-12-05T01:52:19;31.58;;;19.73;;
19521;SDS011;9905;52.126;5.596;2022-12-05T01:54:51;30.25;;;19.17;;
19521;SDS011;9905;52.126;5.596;2022-12-05T01:57:21;31.20;;;20.25;;
19521;SDS011;9905;52.126;5.596;2022-12-05T01:59:49;37.53;;;21.65;;
19521;SDS011;9905;52.126;5.596;2022-12-05T02:02:20;31.88;;;19.33;;
19521;SDS011;9905;52.126;5.596;2022-12-05T02:04:47;30.27;;;19.75;;
19521;SDS011;9905;52.126;5.596;2022-12-05T02:07:20;28.13;;;20.50;;
19521;SDS011;9905;52.126;5.596;2022-12-05T02:09:48;31.30;;;20.48;;
19521;SDS011;9905;52.126;5.596;2022-12-05T02:12:17;28.02;;;19.55;;
19521;SDS011;9905;52.126;5.596;2022-12-05T02:14:49;36.72;;;21.50;;
19521;SDS011;9905;52.126;5.596;2022-12-05T02:17:26;32.20;;;20.35;;
19521;SDS011;9905;52.126;5.596;2022-12-05T02:20:02;34.85;;;20.67;;
19521;SDS011;9905;52.126;5.596;2022-12-05T02:22:52;28.92;;;20.42;;
19521;SDS011;9905;52.126;5.596;2022-12-05T02:26:07;35.28;;;19.58;;
19521;SDS011;9905;52.126;5.596;2022-12-05T02:29:25;37.72;;;20.88;;
19521;SDS011;9905;52.126;5.596;2022-12-05T02:32:12;28.70;;;18.92;;
19521;SDS011;9905;52.126;5.596;2022-12-05T02:34:51;29.83;;;19.38;;
19521;SDS011;9905;52.126;5.596;2022-12-05T02:37:26;30.65;;;20.25;;
19521;SDS011;9905;52.126;5.596;2022-12-05T02:39:55;26.08;;;19.67;;
19521;SDS011;9905;52.126;5.596;2022-12-05T02:42:29;33.30;;;21.05;;
19521;SDS011;9905;52.126;5.596;2022-12-05T02:45:03;27.90;;;19.60;;
19521;SDS011;9905;52.126;5.596;2022-12-05T02:47:34;31.77;;;18.45;;
19521;SDS011;9905;52.126;5.596;2022-12-05T02:50:08;31.52;;;20.63;;
19521;SDS011;9905;52.126;5.596;2022-12-05T02:52:38;31.80;;;20.85;;
19521;SDS011;9905;52.126;5.596;2022-12-05T02:55:06;30.25;;;20.00;;
19521;SDS011;9905;52.126;5.596;2022-12-05T02:57:34;27.83;;;18.52;;
19521;SDS011;9905;52.126;5.596;2022-12-05T03:00:04;25.27;;;18.13;;
19521;SDS011;9905;52.126;5.596;2022-12-05T03:02:32;27.13;;;19.00;;
19521;SDS011;9905;52.126;5.596;2022-12-05T03:05:01;26.88;;;19.33;;
19521;SDS011;9905;52.126;5.596;2022-12-05T03:07:36;29.60;;;19.02;;
19521;SDS011;9905;52.126;5.596;2022-12-05T03:10:03;30.02;;;19.17;;
19521;SDS011;9905;52.126;5.596;2022-12-05T03:12:34;29.45;;;19.92;;
19521;SDS011;9905;52.126;5.596;2022-12-05T03:15:11;28.90;;;18.75;;
19521;SDS011;9905;52.126;5.596;2022-12-05T03:17:42;30.58;;;19.45;;
19521;SDS011;9905;52.126;5.596;2022-12-05T03:20:14;32.20;;;19.95;;
19521;SDS011;9905;52.126;5.596;2022-12-05T03:22:47;29.38;;;18.35;;
19521;SDS011;9905;52.126;5.596;2022-12-05T03:25:19;29.50;;;20.33;;
19521;SDS011;9905;52.126;5.596;2022-12-05T03:27:51;25.25;;;19.98;;
19521;SDS011;9905;52.126;5.596;2022-12-05T03:30:22;25.67;;;18.60;;
19521;SDS011;9905;52.126;5.596;2022-12-05T03:32:50;24.52;;;18.88;;
19521;SDS011;9905;52.126;5.596;2022-12-05T03:35:23;31.33;;;20.02;;
19521;SDS011;9905;52.126;5.596;2022-12-05T03:37:54;28.50;;;19.15;;
19521;SDS011;9905;52.126;5.596;2022-12-05T03:40:28;29.60;;;19.98;;
19521;SDS011;9905;52.126;5.596;2022-12-05T03:43:01;30.73;;;19.35;;
19521;SDS011;9905;52.126;5.596;2022-12-05T03:45:36;29.45;;;20.40;;
19521;SDS011;9905;52.126;5.596;2022-12-05T03:48:10;30.67;;;18.92;;
19521;SDS011;9905;52.126;5.596;2022-12-05T03:50:41;27.67;;;19.60;;
19521;SDS011;9905;52.126;5.596;2022-12-05T03:53:13;26.95;;;19.75;;
19521;SDS011;9905;52.126;5.596;2022-12-05T03:55:44;26.73;;;19.35;;
19521;SDS011;9905;52.126;5.596;2022-12-05T03:58:16;27.35;;;18.65;;
19521;SDS011;9905;52.126;5.596;2022-12-05T04:00:49;24.77;;;19.85;;
19521;SDS011;9905;52.126;5.596;2022-12-05T04:03:19;20.95;;;17.58;;
19521;SDS011;9905;52.126;5.596;2022-12-05T04:05:50;25.50;;;17.83;;
19521;SDS011;9905;52.126;5.596;2022-12-05T04:08:21;25.30;;;20.05;;
19521;SDS011;9905;52.126;5.596;2022-12-05T04:10:52;24.13;;;18.13;;
19521;SDS011;9905;52.126;5.596;2022-12-05T04:13:23;29.38;;;19.30;;
19521;SDS011;9905;52.126;5.596;2022-12-05T04:15:55;28.73;;;19.42;;
19521;SDS011;9905;52.126;5.596;2022-12-05T04:18:45;24.17;;;18.85;;
19521;SDS011;9905;52.126;5.596;2022-12-05T04:21:15;29.88;;;19.20;;
19521;SDS011;9905;52.126;5.596;2022-12-05T04:24:03;23.40;;;18.65;;
19521;SDS011;9905;52.126;5.596;2022-12-05T04:26:49;24.05;;;17.67;;
19521;SDS011;9905;52.126;5.596;2022-12-05T04:29:28;22.92;;;18.85;;
19521;SDS011;9905;52.126;5.596;2022-12-05T04:32:00;27.25;;;19.50;;
19521;SDS011;9905;52.126;5.596;2022-12-05T04:34:32;24.48;;;21.17;;
19521;SDS011;9905;52.126;5.596;2022-12-05T04:37:03;26.10;;;19.25;;
19521;SDS011;9905;52.126;5.596;2022-12-05T04:39:35;27.75;;;20.45;;
19521;SDS011;9905;52.126;5.596;2022-12-05T04:42:05;23.15;;;18.70;;
19521;SDS011;9905;52.126;5.596;2022-12-05T04:44:36;23.17;;;20.13;;
19521;SDS011;9905;52.126;5.596;2022-12-05T04:47:08;25.75;;;18.85;;
19521;SDS011;9905;52.126;5.596;2022-12-05T04:49:38;25.38;;;20.42;;
19521;SDS011;9905;52.126;5.596;2022-12-05T04:52:07;24.15;;;18.83;;
19521;SDS011;9905;52.126;5.596;2022-12-05T04:54:37;24.40;;;19.13;;
19521;SDS011;9905;52.126;5.596;2022-12-05T04:57:09;23.35;;;19.60;;
19521;SDS011;9905;52.126;5.596;2022-12-05T04:59:41;23.10;;;18.38;;
19521;SDS011;9905;52.126;5.596;2022-12-05T05:02:10;29.80;;;19.95;;
19521;SDS011;9905;52.126;5.596;2022-12-05T05:04:41;22.80;;;19.50;;
19521;SDS011;9905;52.126;5.596;2022-12-05T05:07:11;25.40;;;20.58;;
19521;SDS011;9905;52.126;5.596;2022-12-05T05:09:39;30.05;;;20.85;;
19521;SDS011;9905;52.126;5.596;2022-12-05T05:12:06;23.17;;;20.40;;
19521;SDS011;9905;52.126;5.596;2022-12-05T05:14:33;24.25;;;20.63;;
19521;SDS011;9905;52.126;5.596;2022-12-05T05:17:00;25.38;;;21.48;;
19521;SDS011;9905;52.126;5.596;2022-12-05T05:19:28;27.70;;;20.98;;
19521;SDS011;9905;52.126;5.596;2022-12-05T05:21:55;26.55;;;21.50;;
19521;SDS011;9905;52.126;5.596;2022-12-05T05:24:22;22.35;;;19.00;;
19521;SDS011;9905;52.126;5.596;2022-12-05T05:26:50;24.08;;;20.83;;
19521;SDS011;9905;52.126;5.596;2022-12-05T05:29:17;26.40;;;21.75;;
19521;SDS011;9905;52.126;5.596;2022-12-05T05:31:44;24.73;;;21.08;;
19521;SDS011;9905;52.126;5.596;2022-12-05T05:34:11;24.83;;;19.55;;
19521;SDS011;9905;52.126;5.596;2022-12-05T05:36:41;21.65;;;19.27;;
19521;SDS011;9905;52.126;5.596;2022-12-05T05:39:11;21.83;;;19.45;;
19521;SDS011;9905;52.126;5.596;2022-12-05T05:41:39;25.38;;;20.73;;
19521;SDS011;9905;52.126;5.596;2022-12-05T05:44:06;26.48;;;20.95;;
19521;SDS011;9905;52.126;5.596;2022-12-05T05:46:35;25.45;;;19.90;;
19521;SDS011;9905;52.126;5.596;2022-12-05T05:49:03;21.10;;;19.00;;
19521;SDS011;9905;52.126;5.596;2022-12-05T05:51:30;22.75;;;20.33;;
19521;SDS011;9905;52.126;5.596;2022-12-05T05:53:58;25.42;;;20.30;;
19521;SDS011;9905;52.126;5.596;2022-12-05T05:56:25;26.55;;;20.65;;
19521;SDS011;9905;52.126;5.596;2022-12-05T05:58:56;23.83;;;19.30;;
19521;SDS011;9905;52.126;5.596;2022-12-05T06:01:24;23.80;;;19.95;;
19521;SDS011;9905;52.126;5.596;2022-12-05T06:03:50;20.25;;;18.23;;
19521;SDS011;9905;52.126;5.596;2022-12-05T06:06:17;25.27;;;20.15;;
19521;SDS011;9905;52.126;5.596;2022-12-05T06:08:45;24.52;;;20.63;;
19521;SDS011;9905;52.126;5.596;2022-12-05T06:11:14;23.42;;;20.75;;
19521;SDS011;9905;52.126;5.596;2022-12-05T06:13:42;25.20;;;21.33;;
19521;SDS011;9905;52.126;5.596;2022-12-05T06:16:10;24.25;;;19.92;;
19521;SDS011;9905;52.126;5.596;2022-12-05T06:18:38;24.13;;;20.42;;
19521;SDS011;9905;52.126;5.596;2022-12-05T06:21:05;25.92;;;22.02;;
19521;SDS011;9905;52.126;5.596;2022-12-05T06:23:32;25.13;;;20.63;;
19521;SDS011;9905;52.126;5.596;2022-12-05T06:26:00;23.50;;;19.20;;
19521;SDS011;9905;52.126;5.596;2022-12-05T06:28:28;28.27;;;20.13;;
19521;SDS011;9905;52.126;5.596;2022-12-05T06:30:56;24.63;;;21.50;;
19521;SDS011;9905;52.126;5.596;2022-12-05T06:33:23;27.45;;;20.52;;
19521;SDS011;9905;52.126;5.596;2022-12-05T06:35:59;27.35;;;22.08;;
19521;SDS011;9905;52.126;5.596;2022-12-05T06:38:27;30.25;;;22.73;;
19521;SDS011;9905;52.126;5.596;2022-12-05T06:40:54;24.02;;;21.17;;
19521;SDS011;9905;52.126;5.596;2022-12-05T06:43:21;24.33;;;20.67;;
19521;SDS011;9905;52.126;5.596;2022-12-05T06:45:49;23.48;;;20.48;;
19521;SDS011;9905;52.126;5.596;2022-12-05T06:48:15;24.80;;;20.02;;
19521;SDS011;9905;52.126;5.596;2022-12-05T06:50:46;26.98;;;21.60;;
19521;SDS011;9905;52.126;5.596;2022-12-05T06:53:14;26.70;;;22.30;;
19521;SDS011;9905;52.126;5.596;2022-12-05T06:55:40;23.63;;;21.15;;
19521;SDS011;9905;52.126;5.596;2022-12-05T06:58:07;24.60;;;21.98;;
19521;SDS011;9905;52.126;5.596;2022-12-05T07:00:34;24.90;;;21.63;;
19521;SDS011;9905;52.126;5.596;2022-12-05T07:03:19;28.55;;;22.27;;
19521;SDS011;9905;52.126;5.596;2022-12-05T07:05:46;27.40;;;21.27;;
19521;SDS011;9905;52.126;5.596;2022-12-05T07:08:12;26.13;;;21.88;;
19521;SDS011;9905;52.126;5.596;2022-12-05T07:10:39;25.20;;;22.38;;
19521;SDS011;9905;52.126;5.596;2022-12-05T07:13:06;25.33;;;21.30;;
19521;SDS011;9905;52.126;5.596;2022-12-05T07:15:32;24.17;;;21.75;;
19521;SDS011;9905;52.126;5.596;2022-12-05T07:17:59;27.25;;;22.52;;
19521;SDS011;9905;52.126;5.596;2022-12-05T07:20:27;24.25;;;21.65;;
19521;SDS011;9905;52.126;5.596;2022-12-05T07:22:54;25.25;;;22.10;;
19521;SDS011;9905;52.126;5.596;2022-12-05T07:25:20;27.02;;;21.25;;
19521;SDS011;9905;52.126;5.596;2022-12-05T07:27:48;25.65;;;22.92;;
19521;SDS011;9905;52.126;5.596;2022-12-05T07:30:15;24.83;;;21.60;;
19521;SDS011;9905;52.126;5.596;2022-12-05T07:32:42;26.13;;;22.20;;
19521;SDS011;9905;52.126;5.596;2022-12-05T07:35:09;25.80;;;22.55;;
19521;SDS011;9905;52.126;5.596;2022-12-05T07:37:37;24.67;;;22.05;;
19521;SDS011;9905;52.126;5.596;2022-12-05T07:40:04;25.73;;;22.02;;
19521;SDS011;9905;52.126;5.596;2022-12-05T07:42:33;25.42;;;21.02;;
19521;SDS011;9905;52.126;5.596;2022-12-05T07:44:59;26.92;;;22.65;;
19521;SDS011;9905;52.126;5.596;2022-12-05T07:47:28;24.38;;;21.95;;
19521;SDS011;9905;52.126;5.596;2022-12-05T07:49:54;28.75;;;23.25;;
19521;SDS011;9905;52.126;5.596;2022-12-05T07:52:21;23.95;;;21.40;;
19521;SDS011;9905;52.126;5.596;2022-12-05T07:54:49;23.30;;;21.00;;
19521;SDS011;9905;52.126;5.596;2022-12-05T07:57:16;23.67;;;21.25;;
19521;SDS011;9905;52.126;5.596;2022-12-05T07:59:43;26.75;;;21.60;;
19521;SDS011;9905;52.126;5.596;2022-12-05T08:02:09;25.77;;;22.65;;
19521;SDS011;9905;52.126;5.596;2022-12-05T08:04:36;23.80;;;21.23;;
19521;SDS011;9905;52.126;5.596;2022-12-05T08:07:03;22.58;;;20.52;;
19521;SDS011;9905;52.126;5.596;2022-12-05T08:09:29;25.27;;;21.77;;
19521;SDS011;9905;52.126;5.596;2022-12-05T08:11:57;24.65;;;21.58;;
19521;SDS011;9905;52.126;5.596;2022-12-05T08:14:24;25.17;;;20.05;;
19521;SDS011;9905;52.126;5.596;2022-12-05T08:16:51;24.55;;;21.95;;
19521;SDS011;9905;52.126;5.596;2022-12-05T08:19:17;25.35;;;22.95;;
19521;SDS011;9905;52.126;5.596;2022-12-05T08:21:44;26.65;;;23.38;;
19521;SDS011;9905;52.126;5.596;2022-12-05T08:24:11;26.05;;;23.27;;
19521;SDS011;9905;52.126;5.596;2022-12-05T08:26:38;25.63;;;22.67;;
19521;SDS011;9905;52.126;5.596;2022-12-05T08:29:07;27.23;;;22.33;;
19521;SDS011;9905;52.126;5.596;2022-12-05T08:31:37;28.63;;;25.13;;
19521;SDS011;9905;52.126;5.596;2022-12-05T08:34:05;25.30;;;22.88;;
19521;SDS011;9905;52.126;5.596;2022-12-05T08:36:32;24.92;;;22.50;;
19521;SDS011;9905;52.126;5.596;2022-12-05T08:38:59;24.65;;;22.08;;
19521;SDS011;9905;52.126;5.596;2022-12-05T08:41:28;26.73;;;23.85;;
19521;SDS011;9905;52.126;5.596;2022-12-05T08:43:55;23.92;;;21.27;;
19521;SDS011;9905;52.126;5.596;2022-12-05T08:46:23;24.15;;;21.88;;
19521;SDS011;9905;52.126;5.596;2022-12-05T08:48:50;23.67;;;21.42;;
19521;SDS011;9905;52.126;5.596;2022-12-05T08:51:17;27.25;;;22.90;;
19521;SDS011;9905;52.126;5.596;2022-12-05T08:53:43;24.85;;;22.25;;
19521;SDS011;9905;52.126;5.596;2022-12-05T08:56:10;22.90;;;20.60;;
19521;SDS011;9905;52.126;5.596;2022-12-05T08:58:37;22.80;;;20.42;;
19521;SDS011;9905;52.126;5.596;2022-12-05T09:01:05;25.45;;;22.33;;
19521;SDS011;9905;52.126;5.596;2022-12-05T09:03:34;23.75;;;21.27;;
19521;SDS011;9905;52.126;5.596;2022-12-05T09:06:05;23.10;;;20.63;;
19521;SDS011;9905;52.126;5.596;2022-12-05T09:08:32;28.42;;;21.13;;
19521;SDS011;9905;52.126;5.596;2022-12-05T09:10:59;23.88;;;21.40;;
19521;SDS011;9905;52.126;5.596;2022-12-05T09:13:29;24.33;;;21.75;;
19521;SDS011;9905;52.126;5.596;2022-12-05T09:15:55;23.20;;;20.70;;
19521;SDS011;9905;52.126;5.596;2022-12-05T09:18:22;22.65;;;20.42;;
19521;SDS011;9905;52.126;5.596;2022-12-05T09:20:50;27.33;;;23.20;;
19521;SDS011;9905;52.126;5.596;2022-12-05T09:23:17;24.08;;;21.60;;
19521;SDS011;9905;52.126;5.596;2022-12-05T09:25:43;23.23;;;21.02;;
19521;SDS011;9905;52.126;5.596;2022-12-05T09:28:10;24.67;;;21.08;;
19521;SDS011;9905;52.126;5.596;2022-12-05T09:30:37;22.95;;;20.60;;
19521;SDS011;9905;52.126;5.596;2022-12-05T09:33:03;23.42;;;19.67;;
19521;SDS011;9905;52.126;5.596;2022-12-05T09:35:30;23.10;;;20.80;;
19521;SDS011;9905;52.126;5.596;2022-12-05T09:37:58;23.17;;;20.80;;
19521;SDS011;9905;52.126;5.596;2022-12-05T09:40:25;23.65;;;21.27;;
19521;SDS011;9905;52.126;5.596;2022-12-05T09:42:54;22.75;;;20.65;;
19521;SDS011;9905;52.126;5.596;2022-12-05T09:45:27;22.50;;;20.40;;
19521;SDS011;9905;52.126;5.596;2022-12-05T09:47:58;22.77;;;20.55;;
19521;SDS011;9905;52.126;5.596;2022-12-05T09:50:31;23.00;;;20.80;;
19521;SDS011;9905;52.126;5.596;2022-12-05T09:53:03;22.25;;;20.10;;
19521;SDS011;9905;52.126;5.596;2022-12-05T09:55:37;23.25;;;20.75;;
19521;SDS011;9905;52.126;5.596;2022-12-05T09:58:16;21.42;;;19.25;;
19521;SDS011;9905;52.126;5.596;2022-12-05T10:00:48;23.98;;;21.52;;
19521;SDS011;9905;52.126;5.596;2022-12-05T10:03:21;22.75;;;20.67;;
19521;SDS011;9905;52.126;5.596;2022-12-05T10:05:56;21.25;;;19.33;;
19521;SDS011;9905;52.126;5.596;2022-12-05T10:08:32;21.40;;;19.75;;
19521;SDS011;9905;52.126;5.596;2022-12-05T10:11:07;21.90;;;20.00;;
19521;SDS011;9905;52.126;5.596;2022-12-05T10:13:42;22.60;;;20.48;;
19521;SDS011;9905;52.126;5.596;2022-12-05T10:16:16;22.50;;;20.17;;
19521;SDS011;9905;52.126;5.596;2022-12-05T10:18:47;22.10;;;19.85;;
19521;SDS011;9905;52.126;5.596;2022-12-05T10:21:20;20.45;;;18.73;;
19521;SDS011;9905;52.126;5.596;2022-12-05T10:23:52;22.05;;;19.98;;
19521;SDS011;9905;52.126;5.596;2022-12-05T10:26:21;23.15;;;21.15;;
19521;SDS011;9905;52.126;5.596;2022-12-05T10:28:52;21.75;;;19.83;;
19521;SDS011;9905;52.126;5.596;2022-12-05T10:31:23;20.42;;;18.95;;
19521;SDS011;9905;52.126;5.596;2022-12-05T10:33:54;21.85;;;20.08;;
19521;SDS011;9905;52.126;5.596;2022-12-05T10:36:26;21.38;;;19.33;;
19521;SDS011;9905;52.126;5.596;2022-12-05T10:38:54;22.05;;;20.13;;
19521;SDS011;9905;52.126;5.596;2022-12-05T10:41:21;21.08;;;19.25;;
19521;SDS011;9905;52.126;5.596;2022-12-05T10:43:49;20.95;;;19.13;;
19521;SDS011;9905;52.126;5.596;2022-12-05T10:46:15;21.67;;;19.70;;
19521;SDS011;9905;52.126;5.596;2022-12-05T10:48:43;19.98;;;18.48;;
19521;SDS011;9905;52.126;5.596;2022-12-05T10:51:12;21.23;;;19.38;;
19521;SDS011;9905;52.126;5.596;2022-12-05T10:53:42;21.40;;;19.83;;
19521;SDS011;9905;52.126;5.596;2022-12-05T10:59:10;22.60;;;20.65;;
19521;SDS011;9905;52.126;5.596;2022-12-05T11:01:42;19.98;;;18.42;;
19521;SDS011;9905;52.126;5.596;2022-12-05T11:04:18;20.52;;;18.88;;
19521;SDS011;9905;52.126;5.596;2022-12-05T11:06:56;20.58;;;18.88;;
19521;SDS011;9905;52.126;5.596;2022-12-05T11:09:25;20.48;;;18.88;;
19521;SDS011;9905;52.126;5.596;2022-12-05T11:12:00;21.70;;;20.00;;
19521;SDS011;9905;52.126;5.596;2022-12-05T11:14:31;22.60;;;20.75;;
19521;SDS011;9905;52.126;5.596;2022-12-05T11:17:00;20.80;;;19.20;;
19521;SDS011;9905;52.126;5.596;2022-12-05T11:19:29;20.83;;;19.40;;
19521;SDS011;9905;52.126;5.596;2022-12-05T11:21:57;21.10;;;19.52;;
19521;SDS011;9905;52.126;5.596;2022-12-05T11:24:26;21.17;;;19.42;;
19521;SDS011;9905;52.126;5.596;2022-12-05T11:26:54;19.02;;;17.83;;
19521;SDS011;9905;52.126;5.596;2022-12-05T11:29:31;19.02;;;17.73;;
19521;SDS011;9905;52.126;5.596;2022-12-05T11:32:00;19.13;;;17.73;;
19521;SDS011;9905;52.126;5.596;2022-12-05T11:34:29;18.17;;;17.15;;
19521;SDS011;9905;52.126;5.596;2022-12-05T11:37:02;17.95;;;16.90;;
19521;SDS011;9905;52.126;5.596;2022-12-05T11:39:35;18.90;;;17.90;;
19521;SDS011;9905;52.126;5.596;2022-12-05T11:42:09;18.38;;;17.52;;
19521;SDS011;9905;52.126;5.596;2022-12-05T11:47:39;16.30;;;15.65;;
19521;SDS011;9905;52.126;5.596;2022-12-05T11:50:24;17.50;;;16.65;;
19521;SDS011;9905;52.126;5.596;2022-12-05T11:53:03;16.20;;;15.40;;
19521;SDS011;9905;52.126;5.596;2022-12-05T11:55:42;15.80;;;15.02;;
19521;SDS011;9905;52.126;5.596;2022-12-05T11:58:21;16.15;;;15.45;;
19521;SDS011;9905;52.126;5.596;2022-12-05T12:01:19;16.13;;;15.52;;
19521;SDS011;9905;52.126;5.596;2022-12-05T12:04:09;15.60;;;15.00;;
19521;SDS011;9905;52.126;5.596;2022-12-05T12:06:59;16.45;;;15.75;;
19521;SDS011;9905;52.126;5.596;2022-12-05T12:09:38;15.98;;;15.27;;
19521;SDS011;9905;52.126;5.596;2022-12-05T12:12:12;15.75;;;15.05;;
19521;SDS011;9905;52.126;5.596;2022-12-05T12:14:47;16.05;;;15.10;;
19521;SDS011;9905;52.126;5.596;2022-12-05T12:17:23;15.52;;;14.93;;
19521;SDS011;9905;52.126;5.596;2022-12-05T12:20:01;15.73;;;15.02;;
19521;SDS011;9905;52.126;5.596;2022-12-05T12:22:40;14.98;;;14.35;;
19521;SDS011;9905;52.126;5.596;2022-12-05T12:25:20;16.08;;;15.38;;
19521;SDS011;9905;52.126;5.596;2022-12-05T12:27:55;16.15;;;15.45;;
19521;SDS011;9905;52.126;5.596;2022-12-05T12:30:32;15.82;;;14.90;;
19521;SDS011;9905;52.126;5.596;2022-12-05T12:33:13;15.48;;;14.77;;
19521;SDS011;9905;52.126;5.596;2022-12-05T12:35:49;14.40;;;13.88;;
19521;SDS011;9905;52.126;5.596;2022-12-05T12:38:36;14.38;;;13.77;;
19521;SDS011;9905;52.126;5.596;2022-12-05T12:41:20;14.43;;;13.90;;
19521;SDS011;9905;52.126;5.596;2022-12-05T12:44:02;15.32;;;14.73;;
19521;SDS011;9905;52.126;5.596;2022-12-05T12:46:41;16.05;;;15.38;;
19521;SDS011;9905;52.126;5.596;2022-12-05T12:49:19;15.60;;;14.90;;
19521;SDS011;9905;52.126;5.596;2022-12-05T12:51:58;15.88;;;15.10;;
19521;SDS011;9905;52.126;5.596;2022-12-05T12:57:32;14.02;;;13.43;;
19521;SDS011;9905;52.126;5.596;2022-12-05T13:00:11;15.45;;;14.40;;
19521;SDS011;9905;52.126;5.596;2022-12-05T13:02:47;15.00;;;14.30;;
19521;SDS011;9905;52.126;5.596;2022-12-05T13:05:22;13.35;;;12.85;;
19521;SDS011;9905;52.126;5.596;2022-12-05T13:07:57;13.95;;;12.90;;
19521;SDS011;9905;52.126;5.596;2022-12-05T13:10:27;12.65;;;12.15;;
19521;SDS011;9905;52.126;5.596;2022-12-05T13:12:59;13.90;;;13.27;;
19521;SDS011;9905;52.126;5.596;2022-12-05T13:15:30;13.70;;;13.18;;
19521;SDS011;9905;52.126;5.596;2022-12-05T13:18:01;12.80;;;12.20;;
19521;SDS011;9905;52.126;5.596;2022-12-05T13:20:33;13.43;;;13.00;;
19521;SDS011;9905;52.126;5.596;2022-12-05T13:23:01;12.55;;;11.95;;
19521;SDS011;9905;52.126;5.596;2022-12-05T13:25:31;13.23;;;12.73;;
19521;SDS011;9905;52.126;5.596;2022-12-05T13:28:00;12.77;;;12.27;;
19521;SDS011;9905;52.126;5.596;2022-12-05T13:30:30;13.27;;;12.57;;
19521;SDS011;9905;52.126;5.596;2022-12-05T13:33:17;10.70;;;10.35;;
19521;SDS011;9905;52.126;5.596;2022-12-05T13:35:50;14.05;;;13.45;;
19521;SDS011;9905;52.126;5.596;2022-12-05T13:38:38;13.52;;;13.02;;
19521;SDS011;9905;52.126;5.596;2022-12-05T13:41:36;13.63;;;12.80;;
19521;SDS011;9905;52.126;5.596;2022-12-05T13:44:25;13.68;;;12.93;;
19521;SDS011;9905;52.126;5.596;2022-12-05T13:46:57;13.45;;;12.85;;
19521;SDS011;9905;52.126;5.596;2022-12-05T13:49:26;12.93;;;12.18;;
19521;SDS011;9905;52.126;5.596;2022-12-05T13:52:04;13.52;;;12.60;;
19521;SDS011;9905;52.126;5.596;2022-12-05T13:54:33;12.70;;;12.00;;
19521;SDS011;9905;52.126;5.596;2022-12-05T13:57:08;12.60;;;11.95;;
19521;SDS011;9905;52.126;5.596;2022-12-05T14:00:21;12.07;;;11.57;;
19521;SDS011;9905;52.126;5.596;2022-12-05T14:02:51;12.63;;;12.00;;
19521;SDS011;9905;52.126;5.596;2022-12-05T14:05:36;13.05;;;12.55;;
19521;SDS011;9905;52.126;5.596;2022-12-05T14:11:19;12.80;;;11.88;;
19521;SDS011;9905;52.126;5.596;2022-12-05T14:13:46;13.35;;;12.85;;
19521;SDS011;9905;52.126;5.596;2022-12-05T14:22:10;12.65;;;12.05;;
19521;SDS011;9905;52.126;5.596;2022-12-05T14:24:48;12.52;;;12.02;;
19521;SDS011;9905;52.126;5.596;2022-12-05T14:27:23;13.02;;;12.52;;
19521;SDS011;9905;52.126;5.596;2022-12-05T14:30:10;12.90;;;12.50;;
19521;SDS011;9905;52.126;5.596;2022-12-05T14:32:44;11.98;;;11.57;;
19521;SDS011;9905;52.126;5.596;2022-12-05T14:35:13;12.13;;;11.70;;
19521;SDS011;9905;52.126;5.596;2022-12-05T14:37:42;11.93;;;11.45;;
19521;SDS011;9905;52.126;5.596;2022-12-05T14:40:19;11.75;;;11.35;;
19521;SDS011;9905;52.126;5.596;2022-12-05T14:42:52;11.30;;;10.77;;
19521;SDS011;9905;52.126;5.596;2022-12-05T14:45:26;11.57;;;11.07;;
19521;SDS011;9905;52.126;5.596;2022-12-05T14:47:56;11.88;;;11.38;;
19521;SDS011;9905;52.126;5.596;2022-12-05T14:50:35;11.02;;;10.63;;
19521;SDS011;9905;52.126;5.596;2022-12-05T14:53:16;11.20;;;10.80;;
19521;SDS011;9905;52.126;5.596;2022-12-05T14:56:04;12.10;;;11.60;;
19521;SDS011;9905;52.126;5.596;2022-12-05T14:58:39;12.48;;;11.88;;
19521;SDS011;9905;52.126;5.596;2022-12-05T15:01:12;13.40;;;12.70;;
19521;SDS011;9905;52.126;5.596;2022-12-05T15:03:46;12.18;;;11.70;;
19521;SDS011;9905;52.126;5.596;2022-12-05T15:06:41;11.85;;;11.38;;
19521;SDS011;9905;52.126;5.596;2022-12-05T15:09:23;12.23;;;11.65;;
19521;SDS011;9905;52.126;5.596;2022-12-05T15:12:02;13.38;;;12.80;;
19521;SDS011;9905;52.126;5.596;2022-12-05T15:14:31;13.40;;;12.90;;
19521;SDS011;9905;52.126;5.596;2022-12-05T15:17:02;11.85;;;11.35;;
19521;SDS011;9905;52.126;5.596;2022-12-05T15:19:35;12.48;;;11.88;;